Time;durP1;ratioP1;P1;durP2;ratioP2;P2;SDS_P1;SDS_P2;PMS_P1;PMS_P2;Temp;Humidity;BMP_temperature;BMP_pressure;BME280_temperature;BME280_humidity;BME280_pressure;Samples;Min_cycle;Max_cycle;Signal;HPM_P1;HPM_P2
2023/12/14 00:02:07;;;;;;;11.18;8.60;;;5.70;99.90;;;;;;6276732;22;20026;-77
2023/12/14 00:04:32;;;;;;;15.02;9.98;;;5.80;99.90;;;;;;6301724;22;20016;-77
2023/12/14 00:06:58;;;;;;;16.75;10.55;;;5.80;99.90;;;;;;6302019;22;20076;-77
2023/12/14 00:09:23;;;;;;;11.40;8.88;;;5.80;99.90;;;;;;6302251;22;20336;-77
2023/12/14 00:11:49;;;;;;;10.45;8.38;;;5.80;99.90;;;;;;6302349;22;20362;-77
2023/12/14 00:14:15;;;;;;;13.98;10.05;;;5.80;99.90;;;;;;6302731;22;20058;-77
2023/12/14 00:16:40;;;;;;;10.18;8.13;;;5.80;99.90;;;;;;6302892;22;20023;-77
2023/12/14 00:19:06;;;;;;;9.02;7.50;;;5.80;99.90;;;;;;6302673;22;20023;-77
2023/12/14 00:21:32;;;;;;;11.05;8.25;;;5.80;99.90;;;;;;6302487;22;20023;-76
2023/12/14 00:23:57;;;;;;;9.48;7.03;;;5.70;99.90;;;;;;6302361;22;20466;-77
2023/12/14 00:26:23;;;;;;;8.98;7.32;;;5.80;99.90;;;;;;6302214;22;20084;-77
2023/12/14 00:28:49;;;;;;;10.45;7.32;;;5.70;99.90;;;;;;6302066;22;20090;-77
2023/12/14 00:31:14;;;;;;;8.77;7.32;;;5.70;99.90;;;;;;6302326;22;20015;-77
2023/12/14 00:33:40;;;;;;;10.68;7.50;;;5.60;99.90;;;;;;6303903;22;20120;-76
2023/12/14 00:36:06;;;;;;;10.93;7.65;;;5.70;99.90;;;;;;6301594;22;20026;-76
2023/12/14 00:38:32;;;;;;;9.48;7.05;;;5.70;99.90;;;;;;6302196;22;20026;-76
2023/12/14 00:40:57;;;;;;;11.93;7.53;;;5.70;99.90;;;;;;6301825;22;20092;-76
2023/12/14 00:43:23;;;;;;;9.55;7.55;;;5.70;99.90;;;;;;6276224;22;20023;-76
2023/12/14 00:45:49;;;;;;;8.88;6.55;;;5.60;99.90;;;;;;6304074;22;20007;-77
2023/12/14 00:48:15;;;;;;;8.82;6.60;;;5.60;99.90;;;;;;6303694;22;20012;-77
2023/12/14 00:50:40;;;;;;;10.82;7.50;;;5.60;99.90;;;;;;6302018;22;20016;-77
2023/12/14 00:53:06;;;;;;;10.50;7.32;;;5.70;99.90;;;;;;6301961;22;20019;-77
2023/12/14 00:55:31;;;;;;;10.18;7.10;;;5.60;99.90;;;;;;6275802;22;20100;-77
2023/12/14 00:57:57;;;;;;;8.63;6.95;;;5.60;99.90;;;;;;6301715;22;20015;-77
2023/12/14 01:00:23;;;;;;;9.48;7.07;;;5.60;99.90;;;;;;6301795;22;20015;-77
2023/12/14 01:02:49;;;;;;;7.90;6.28;;;5.50;99.90;;;;;;6303567;22;20043;-76
2023/12/14 01:05:14;;;;;;;7.47;6.68;;;5.50;99.90;;;;;;6301893;22;20086;-77
2023/12/14 01:07:40;;;;;;;9.27;7.10;;;5.50;99.90;;;;;;6301876;22;20034;-77
2023/12/14 01:10:06;;;;;;;9.35;6.47;;;5.60;99.90;;;;;;6301880;22;20011;-77
2023/12/14 01:12:32;;;;;;;8.50;7.00;;;5.60;99.90;;;;;;6303880;22;20026;-77
2023/12/14 01:14:58;;;;;;;8.43;6.80;;;5.60;99.90;;;;;;6301656;22;20023;-77
2023/12/14 01:17:23;;;;;;;9.55;6.95;;;5.50;99.90;;;;;;6276144;22;20021;-77
2023/12/14 01:19:49;;;;;;;8.73;6.78;;;5.60;99.90;;;;;;6303826;22;20011;-77
2023/12/14 01:22:15;;;;;;;8.25;6.35;;;5.60;99.90;;;;;;6301624;22;20047;-77
2023/12/14 01:24:40;;;;;;;9.43;6.88;;;5.70;99.90;;;;;;6301424;22;20015;-77
2023/12/14 01:27:06;;;;;;;9.02;7.35;;;5.60;99.90;;;;;;6301422;22;20451;-76
2023/12/14 01:29:32;;;;;;;7.80;6.90;;;5.70;99.90;;;;;;6301531;22;20294;-77
2023/12/14 01:31:57;;;;;;;9.93;6.60;;;5.60;99.90;;;;;;6301721;22;20022;-77
2023/12/14 01:34:23;;;;;;;8.88;7.10;;;5.60;99.90;;;;;;6301604;22;20118;-77
2023/12/14 01:36:48;;;;;;;9.85;6.63;;;5.70;99.90;;;;;;6303381;22;20026;-77
2023/12/14 01:39:14;;;;;;;10.45;7.45;;;5.50;99.90;;;;;;6301269;22;20015;-77
2023/12/14 01:41:40;;;;;;;10.30;7.45;;;5.60;99.90;;;;;;6303417;22;20015;-77
2023/12/14 01:44:05;;;;;;;10.15;7.22;;;5.60;99.90;;;;;;6301576;22;20021;-77
2023/12/14 01:46:31;;;;;;;11.07;7.28;;;5.60;99.90;;;;;;6301289;22;20053;-77
2023/12/14 01:48:57;;;;;;;8.93;6.90;;;5.60;99.90;;;;;;6301490;22;20019;-77
2023/12/14 01:51:23;;;;;;;9.02;6.72;;;5.60;99.90;;;;;;6303251;22;20412;-77
2023/12/14 01:53:48;;;;;;;8.00;7.00;;;5.60;99.90;;;;;;6302878;22;20022;-77
2023/12/14 01:56:14;;;;;;;10.10;6.80;;;5.60;99.90;;;;;;6301300;22;20015;-77
2023/12/14 01:58:40;;;;;;;8.50;6.22;;;5.60;99.90;;;;;;6303278;22;20011;-77
2023/12/14 02:01:20;;;;;;;9.20;7.43;;;5.50;99.90;;;;;;6301302;22;20023;-77
2023/12/14 02:03:47;;;;;;;8.63;6.55;;;5.50;99.90;;;;;;6301444;22;20461;-77
2023/12/14 02:06:13;;;;;;;13.35;7.35;;;5.50;99.90;;;;;;6303141;22;20458;-77
2023/12/14 02:08:38;;;;;;;9.07;5.90;;;5.50;99.90;;;;;;6301127;22;20019;-77
2023/12/14 02:11:04;;;;;;;10.52;6.47;;;5.40;99.90;;;;;;6301085;22;20015;-77
2023/12/14 02:13:30;;;;;;;10.45;6.75;;;5.50;99.90;;;;;;6301116;22;20084;-77
2023/12/14 02:15:56;;;;;;;12.85;6.75;;;5.50;99.90;;;;;;6301355;22;20046;-77
2023/12/14 02:18:21;;;;;;;8.38;6.25;;;5.40;99.90;;;;;;6301202;22;20019;-78
2023/12/14 02:20:47;;;;;;;8.88;6.03;;;5.40;99.90;;;;;;6301282;22;20022;-77
2023/12/14 02:23:13;;;;;;;12.57;6.93;;;5.30;99.90;;;;;;6300925;22;20023;-78
2023/12/14 02:25:38;;;;;;;11.18;6.97;;;5.30;99.90;;;;;;6301221;22;20011;-78
2023/12/14 02:28:04;;;;;;;9.93;6.20;;;5.30;99.90;;;;;;6302953;22;20444;-76
2023/12/14 02:30:30;;;;;;;14.43;6.32;;;5.30;99.90;;;;;;6301548;22;20461;-78
2023/12/14 02:32:56;;;;;;;8.88;6.05;;;5.40;99.90;;;;;;6301469;22;20025;-78
2023/12/14 02:35:22;;;;;;;8.45;6.07;;;5.40;99.90;;;;;;6301263;22;20011;-77
2023/12/14 02:37:48;;;;;;;9.48;6.65;;;5.30;99.90;;;;;;6302766;22;20023;-78
2023/12/14 02:40:14;;;;;;;9.55;6.35;;;5.30;99.90;;;;;;6301101;22;20090;-78
2023/12/14 02:42:39;;;;;;;8.48;6.55;;;5.20;99.90;;;;;;6301064;22;20007;-76
2023/12/14 02:45:07;;;;;;;10.70;7.15;;;5.20;99.90;;;;;;6301095;22;20545;-77
2023/12/14 02:47:33;;;;;;;11.43;6.00;;;5.20;99.90;;;;;;6301039;22;20824;-77
2023/12/14 02:49:58;;;;;;;9.57;6.28;;;5.20;99.90;;;;;;6300871;22;20023;-78
2023/12/14 02:52:24;;;;;;;12.00;7.15;;;5.20;99.90;;;;;;6300889;22;20363;-77
2023/12/14 02:54:50;;;;;;;9.65;6.95;;;5.20;99.90;;;;;;6300761;22;20025;-78
2023/12/14 02:57:15;;;;;;;10.85;7.10;;;5.30;99.90;;;;;;6300706;22;20099;-77
2023/12/14 02:59:41;;;;;;;11.38;7.05;;;5.30;99.90;;;;;;6300646;22;20504;-77
2023/12/14 03:02:07;;;;;;;10.85;6.57;;;5.20;99.90;;;;;;6300788;22;20015;-78
2023/12/14 03:04:32;;;;;;;10.80;6.75;;;5.30;99.90;;;;;;6300571;22;20145;-77
2023/12/14 03:07:02;;;;;;;10.98;7.30;;;5.20;99.90;;;;;;6300939;22;20467;-78
2023/12/14 03:09:28;;;;;;;11.65;6.85;;;5.20;99.90;;;;;;6300649;22;20022;-78
2023/12/14 03:11:54;;;;;;;9.88;7.18;;;5.20;99.90;;;;;;6300874;22;20023;-77
2023/12/14 03:14:20;;;;;;;8.73;6.35;;;5.20;99.90;;;;;;6300781;22;20050;-77
2023/12/14 03:16:45;;;;;;;9.50;6.40;;;5.30;99.90;;;;;;6300769;22;20407;-77
2023/12/14 03:19:11;;;;;;;8.32;5.72;;;5.30;99.90;;;;;;6300455;22;20015;-78
2023/12/14 03:21:37;;;;;;;10.10;7.07;;;5.20;99.90;;;;;;6300697;22;20054;-78
2023/12/14 03:24:03;;;;;;;14.50;7.60;;;5.20;99.90;;;;;;6302831;22;20317;-78
2023/12/14 03:26:28;;;;;;;10.85;6.47;;;5.20;99.90;;;;;;6300653;22;20100;-77
2023/12/14 03:28:54;;;;;;;10.13;6.28;;;5.20;99.90;;;;;;6300491;22;20347;-78
2023/12/14 03:31:20;;;;;;;10.07;7.00;;;5.20;99.90;;;;;;6300781;22;20015;-78
2023/12/14 03:33:45;;;;;;;10.43;7.15;;;5.20;99.90;;;;;;6300431;22;20042;-78
2023/12/14 03:36:11;;;;;;;10.02;7.05;;;5.20;99.90;;;;;;6302283;22;20015;-78
2023/12/14 03:38:37;;;;;;;11.68;5.80;;;5.20;99.90;;;;;;6302761;22;20072;-77
2023/12/14 03:41:03;;;;;;;10.85;6.50;;;5.30;99.90;;;;;;6300573;22;20051;-78
2023/12/14 03:43:28;;;;;;;12.57;7.38;;;5.20;99.90;;;;;;6300699;22;20015;-78
2023/12/14 03:45:54;;;;;;;8.80;6.20;;;5.30;99.90;;;;;;6300709;22;20030;-78
2023/12/14 03:48:20;;;;;;;8.55;6.10;;;5.20;99.90;;;;;;6300409;22;20039;-78
2023/12/14 03:50:45;;;;;;;11.63;6.72;;;5.20;99.90;;;;;;6300708;22;20112;-78
2023/12/14 03:53:11;;;;;;;9.80;6.30;;;5.20;99.90;;;;;;6300620;22;20019;-78
2023/12/14 03:55:37;;;;;;;9.73;6.05;;;5.20;99.90;;;;;;6300478;22;20125;-77
2023/12/14 03:58:02;;;;;;;11.02;5.68;;;5.30;99.90;;;;;;6300259;22;20023;-77
2023/12/14 04:00:28;;;;;;;10.65;5.88;;;5.30;99.90;;;;;;6300645;22;20050;-78
2023/12/14 04:02:54;;;;;;;10.25;6.60;;;5.30;99.90;;;;;;6300506;22;20064;-78
2023/12/14 04:05:20;;;;;;;10.57;6.28;;;5.20;99.90;;;;;;6300526;22;20019;-78
2023/12/14 04:07:45;;;;;;;9.05;5.78;;;5.30;99.90;;;;;;6300643;22;20098;-78
2023/12/14 04:10:11;;;;;;;9.05;6.30;;;5.20;99.90;;;;;;6300571;22;20080;-77
2023/12/14 04:12:38;;;;;;;10.57;6.10;;;5.20;99.90;;;;;;6276626;22;20351;-78
2023/12/14 04:15:05;;;;;;;11.02;6.25;;;5.20;99.90;;;;;;6302351;22;20371;-78
2023/12/14 04:17:31;;;;;;;10.00;6.35;;;5.30;99.90;;;;;;6302627;22;20015;-78
2023/12/14 04:19:57;;;;;;;12.57;6.60;;;5.30;99.90;;;;;;6302327;22;20069;-78
2023/12/14 04:22:23;;;;;;;12.13;6.32;;;5.30;99.90;;;;;;6302340;22;20046;-78
2023/12/14 04:24:50;;;;;;;10.82;6.30;;;5.30;99.90;;;;;;6303877;22;20011;-78
2023/12/14 04:27:15;;;;;;;9.43;5.90;;;5.20;99.90;;;;;;6302133;22;20027;-77
2023/12/14 04:29:41;;;;;;;10.93;6.80;;;5.20;99.90;;;;;;6302179;22;20026;-78
2023/12/14 04:32:07;;;;;;;11.30;6.18;;;5.20;99.90;;;;;;6301999;22;20026;-78
2023/12/14 04:34:33;;;;;;;11.63;8.50;;;5.20;99.90;;;;;;6302157;22;20082;-78
2023/12/14 04:36:58;;;;;;;11.73;7.53;;;5.20;99.90;;;;;;6304077;22;20104;-78
2023/12/14 04:39:25;;;;;;;11.32;6.10;;;5.20;99.90;;;;;;6302158;22;20416;-78
2023/12/14 04:41:52;;;;;;;13.70;7.65;;;5.30;99.90;;;;;;6302247;22;20042;-78
2023/12/14 04:44:18;;;;;;;9.68;6.50;;;5.30;99.90;;;;;;6276260;22;20026;-78
2023/12/14 04:46:44;;;;;;;14.13;7.38;;;5.30;99.90;;;;;;6301831;22;20011;-81
2023/12/14 04:49:10;;;;;;;11.30;7.13;;;5.30;99.90;;;;;;6302056;22;20022;-81
2023/12/14 04:51:36;;;;;;;11.00;7.45;;;5.30;99.90;;;;;;6302221;22;20132;-80
2023/12/14 04:54:02;;;;;;;10.57;6.50;;;5.20;99.90;;;;;;6302136;22;20107;-80
2023/12/14 04:56:28;;;;;;;13.02;7.82;;;5.20;99.90;;;;;;6304038;22;20022;-80
2023/12/14 04:58:53;;;;;;;11.93;7.32;;;5.20;99.90;;;;;;6304084;22;20007;-81
2023/12/14 05:01:19;;;;;;;13.73;7.15;;;5.20;99.90;;;;;;6304224;22;20465;-81
2023/12/14 05:03:45;;;;;;;11.68;7.10;;;5.10;99.90;;;;;;6302173;22;20106;-81
2023/12/14 05:06:10;;;;;;;12.70;6.53;;;5.10;99.90;;;;;;6303958;22;20320;-80
2023/12/14 05:08:36;;;;;;;10.40;6.38;;;5.10;99.90;;;;;;6302029;22;20443;-80
2023/12/14 05:11:03;;;;;;;11.40;6.78;;;5.10;99.90;;;;;;6302060;22;20019;-81
2023/12/14 05:13:29;;;;;;;12.55;6.95;;;5.10;99.90;;;;;;6302135;22;20023;-80
2023/12/14 05:15:55;;;;;;;11.13;6.68;;;5.10;99.90;;;;;;6276086;22;20030;-81
2023/12/14 05:18:20;;;;;;;10.98;6.93;;;5.20;99.90;;;;;;6302246;22;20350;-81
2023/12/14 05:20:46;;;;;;;14.60;7.38;;;5.20;99.90;;;;;;6302264;22;20388;-81
2023/12/14 05:23:12;;;;;;;9.88;5.95;;;5.30;99.90;;;;;;6301869;22;20011;-80
2023/12/14 05:25:38;;;;;;;11.13;6.93;;;5.20;99.90;;;;;;6301765;22;20397;-80
2023/12/14 05:28:04;;;;;;;9.77;6.53;;;5.30;99.90;;;;;;6301647;22;20023;-80
2023/12/14 05:30:30;;;;;;;10.50;5.93;;;5.30;99.90;;;;;;6301647;22;20053;-80
2023/12/14 05:32:55;;;;;;;11.32;6.55;;;5.30;99.90;;;;;;6301803;22;20580;-80
2023/12/14 05:35:21;;;;;;;9.65;6.78;;;5.30;99.90;;;;;;6275777;22;20019;-80
2023/12/14 05:37:48;;;;;;;15.45;7.93;;;5.30;99.90;;;;;;6303751;22;20099;-80
2023/12/14 05:40:13;;;;;;;10.23;6.57;;;5.20;99.90;;;;;;6301622;22;20343;-80
2023/12/14 05:42:39;;;;;;;10.60;7.03;;;5.30;99.90;;;;;;6303373;22;20007;-80
2023/12/14 05:45:06;;;;;;;12.52;6.57;;;5.30;99.90;;;;;;6301327;22;20023;-80
2023/12/14 05:47:33;;;;;;;14.20;7.55;;;5.30;99.90;;;;;;6301510;22;20022;-80
2023/12/14 05:49:59;;;;;;;13.20;7.22;;;5.20;99.90;;;;;;6301632;22;20015;-80
2023/12/14 05:52:24;;;;;;;10.55;6.88;;;5.30;99.90;;;;;;6303127;22;20106;-80
2023/12/14 05:54:50;;;;;;;11.88;7.05;;;5.20;99.90;;;;;;6301415;22;20046;-80
2023/12/14 05:57:16;;;;;;;10.85;6.68;;;5.30;99.90;;;;;;6303090;22;20062;-80
2023/12/14 05:59:42;;;;;;;12.23;7.88;;;5.20;99.90;;;;;;6301082;22;20459;-80
2023/12/14 06:02:08;;;;;;;13.30;6.60;;;5.20;99.90;;;;;;6301318;22;20018;-80
2023/12/14 06:04:33;;;;;;;11.07;6.43;;;5.20;99.90;;;;;;6303218;22;20015;-78
2023/12/14 06:06:59;;;;;;;10.75;6.45;;;5.30;99.90;;;;;;6302992;22;20018;-77
2023/12/14 06:09:33;;;;;;;11.68;7.57;;;5.20;99.90;;;;;;6301279;22;20027;-77
2023/12/14 06:12:02;;;;;;;11.18;6.78;;;5.10;99.90;;;;;;6301284;22;20057;-77
2023/12/14 06:14:28;;;;;;;15.57;8.38;;;5.20;99.90;;;;;;6300929;22;20022;-78
2023/12/14 06:16:54;;;;;;;11.80;7.40;;;5.10;99.90;;;;;;6302969;22;20022;-77
2023/12/14 06:19:20;;;;;;;13.23;6.45;;;5.10;99.90;;;;;;6301189;22;20674;-76
2023/12/14 06:21:46;;;;;;;11.23;7.88;;;5.10;99.90;;;;;;6301152;22;20409;-78
2023/12/14 06:24:11;;;;;;;12.30;7.55;;;5.10;99.90;;;;;;6301124;22;20019;-78
2023/12/14 06:26:44;;;;;;;15.60;8.43;;;5.20;99.90;;;;;;6301204;22;20387;-77
2023/12/14 06:29:11;;;;;;;11.98;7.53;;;5.20;99.90;;;;;;6300784;22;20057;-78
2023/12/14 06:31:37;;;;;;;10.95;6.95;;;5.20;99.90;;;;;;6301165;22;20022;-77
2023/12/14 06:34:04;;;;;;;10.98;6.57;;;5.20;99.90;;;;;;6300664;22;20390;-77
2023/12/14 06:36:34;;;;;;;12.75;7.30;;;5.20;99.90;;;;;;6301013;22;20332;-76
2023/12/14 06:39:01;;;;;;;12.15;7.40;;;5.20;99.90;;;;;;6301071;22;20017;-76
2023/12/14 06:41:28;;;;;;;11.90;7.72;;;5.20;99.90;;;;;;6301155;22;20402;-76
2023/12/14 06:43:54;;;;;;;29.65;21.63;;;5.10;99.90;;;;;;6300682;22;20447;-77
2023/12/14 06:46:20;;;;;;;18.77;12.05;;;5.20;99.90;;;;;;6300992;22;20020;-80
2023/12/14 06:48:46;;;;;;;14.50;9.10;;;5.20;99.90;;;;;;6300983;22;20370;-78
2023/12/14 06:51:12;;;;;;;11.93;8.10;;;5.20;99.90;;;;;;6300925;22;20027;-77
2023/12/14 06:53:42;;;;;;;14.32;7.75;;;5.10;99.90;;;;;;6300951;22;20033;-77
2023/12/14 06:56:12;;;;;;;12.55;7.65;;;5.20;99.90;;;;;;6302597;22;20023;-77
2023/12/14 06:58:42;;;;;;;12.57;7.60;;;5.20;99.90;;;;;;6301725;22;20065;-77
2023/12/14 07:01:15;;;;;;;11.73;7.43;;;5.10;99.90;;;;;;6301222;22;20019;-77
2023/12/14 07:03:43;;;;;;;16.17;8.13;;;5.10;99.90;;;;;;6276234;22;20048;-77
2023/12/14 07:06:12;;;;;;;11.23;7.55;;;5.10;99.90;;;;;;6301092;22;20019;-77
2023/12/14 07:08:39;;;;;;;12.55;6.78;;;5.10;99.90;;;;;;6300967;22;20486;-77
2023/12/14 07:11:05;;;;;;;12.27;7.90;;;5.10;99.90;;;;;;6306244;22;20022;-77
2023/12/14 07:13:30;;;;;;;10.93;6.97;;;5.20;99.90;;;;;;6308602;22;20019;-76
2023/12/14 07:15:56;;;;;;;14.30;8.93;;;5.20;99.90;;;;;;6308270;22;20023;-77
2023/12/14 07:18:22;;;;;;;14.65;8.80;;;5.20;99.90;;;;;;6307346;22;20011;-78
2023/12/14 07:20:47;;;;;;;15.02;7.78;;;5.30;99.90;;;;;;6308296;22;20015;-78
2023/12/14 07:23:13;;;;;;;12.63;6.85;;;5.30;99.90;;;;;;6308482;22;20084;-77
2023/12/14 07:25:38;;;;;;;12.48;6.95;;;5.30;99.90;;;;;;6308080;22;20019;-78
2023/12/14 07:28:04;;;;;;;15.38;8.35;;;5.20;99.90;;;;;;6302881;22;20020;-78
2023/12/14 07:30:30;;;;;;;11.40;7.70;;;5.20;99.90;;;;;;6301015;22;20011;-78
2023/12/14 07:32:55;;;;;;;13.65;7.53;;;5.30;99.90;;;;;;6300865;22;20094;-78
2023/12/14 07:35:21;;;;;;;12.25;7.30;;;5.30;99.90;;;;;;6300780;22;20343;-77
2023/12/14 07:37:47;;;;;;;12.15;7.35;;;5.30;99.90;;;;;;6301164;22;20011;-77
2023/12/14 07:40:12;;;;;;;11.57;8.00;;;5.30;99.90;;;;;;6300452;22;20102;-78
2023/12/14 07:42:38;;;;;;;10.18;7.43;;;5.20;99.90;;;;;;6300707;22;20343;-78
2023/12/14 07:45:05;;;;;;;13.00;8.30;;;5.20;99.90;;;;;;6301378;22;20015;-77
2023/12/14 07:47:30;;;;;;;13.75;8.02;;;5.20;99.90;;;;;;6302713;22;20047;-77
2023/12/14 07:49:56;;;;;;;14.50;7.60;;;5.30;99.90;;;;;;6304673;22;20020;-77
2023/12/14 07:52:22;;;;;;;12.38;6.97;;;5.30;99.90;;;;;;6302377;22;20015;-78
2023/12/14 07:54:47;;;;;;;11.65;6.97;;;5.20;99.90;;;;;;6299439;22;20439;-79
2023/12/14 07:57:13;;;;;;;12.52;7.60;;;5.30;99.90;;;;;;6302122;22;20007;-77
2023/12/14 07:59:39;;;;;;;11.85;7.30;;;5.30;99.90;;;;;;6304589;22;20068;-77
2023/12/14 08:02:04;;;;;;;14.20;8.35;;;5.30;99.90;;;;;;6304433;22;20015;-78
2023/12/14 08:04:30;;;;;;;16.40;7.28;;;5.30;99.90;;;;;;6302610;22;20086;-78
2023/12/14 08:06:56;;;;;;;14.85;8.95;;;5.30;99.90;;;;;;6302656;22;20027;-78
2023/12/14 08:09:22;;;;;;;14.15;7.72;;;5.30;99.90;;;;;;6302304;22;20261;-78
2023/12/14 08:11:47;;;;;;;15.60;8.32;;;5.40;99.90;;;;;;6302372;22;20102;-78
2023/12/14 08:14:13;;;;;;;11.23;7.32;;;5.30;99.90;;;;;;6301970;22;20023;-79
2023/12/14 08:16:39;;;;;;;12.80;8.23;;;5.30;99.90;;;;;;6302378;22;20027;-78
2023/12/14 08:19:04;;;;;;;14.60;8.13;;;5.30;99.90;;;;;;6301939;22;20026;-78
2023/12/14 08:21:30;;;;;;;10.95;7.15;;;5.40;99.90;;;;;;6302121;22;20089;-76
2023/12/14 08:23:56;;;;;;;12.15;7.35;;;5.40;99.90;;;;;;6303593;22;20019;-76
2023/12/14 08:26:22;;;;;;;17.33;7.95;;;5.50;99.90;;;;;;6301854;22;20019;-76
2023/12/14 08:28:48;;;;;;;14.07;7.55;;;5.40;99.90;;;;;;6275926;22;20030;-76
2023/12/14 08:31:13;;;;;;;13.20;7.22;;;5.40;99.90;;;;;;6302015;22;20120;-75
2023/12/14 08:33:42;;;;;;;12.07;8.02;;;5.40;99.90;;;;;;6302451;22;20027;-78
2023/12/14 08:36:08;;;;;;;12.00;7.70;;;5.50;99.90;;;;;;6303871;22;20157;-77
2023/12/14 08:38:34;;;;;;;13.95;7.93;;;5.40;99.90;;;;;;6303765;22;20016;-78
2023/12/14 08:41:00;;;;;;;14.50;7.93;;;5.40;99.90;;;;;;6302146;22;20026;-76
2023/12/14 08:43:26;;;;;;;13.02;7.75;;;5.50;99.90;;;;;;6303996;22;20019;-77
2023/12/14 08:45:52;;;;;;;14.32;7.50;;;5.50;99.90;;;;;;6304414;22;20094;-77
2023/12/14 08:48:18;;;;;;;13.73;8.65;;;5.40;99.90;;;;;;6302524;22;20062;-78
2023/12/14 08:50:44;;;;;;;12.45;8.43;;;5.40;99.90;;;;;;6302343;22;20570;-78
2023/12/14 08:53:11;;;;;;;18.17;8.38;;;5.50;99.90;;;;;;6302086;22;20011;-78
2023/12/14 08:55:36;;;;;;;11.60;7.65;;;5.40;99.90;;;;;;6302453;22;20400;-77
2023/12/14 08:58:02;;;;;;;15.13;7.13;;;5.40;99.90;;;;;;6301580;22;20082;-77
2023/12/14 09:00:28;;;;;;;17.00;7.80;;;5.50;99.90;;;;;;6304543;22;20011;-77
2023/12/14 09:02:53;;;;;;;12.27;7.05;;;5.50;99.90;;;;;;6303967;22;20062;-77
2023/12/14 09:05:20;;;;;;;14.90;8.20;;;5.40;99.90;;;;;;6304324;22;20021;-77
2023/12/14 09:07:47;;;;;;;12.73;7.57;;;5.50;99.90;;;;;;6304065;22;20338;-77
2023/12/14 09:10:13;;;;;;;13.23;7.95;;;5.40;99.90;;;;;;6304303;22;20050;-77
2023/12/14 09:12:38;;;;;;;14.60;7.80;;;5.40;99.90;;;;;;6302275;22;20042;-77
2023/12/14 09:15:04;;;;;;;17.20;8.35;;;5.50;99.90;;;;;;6302195;22;20022;-77
2023/12/14 09:17:32;;;;;;;13.90;7.60;;;5.50;99.90;;;;;;6303971;22;20015;-77
2023/12/14 09:20:04;;;;;;;17.45;8.55;;;5.50;99.90;;;;;;6302312;22;20015;-77
2023/12/14 09:22:31;;;;;;;14.82;8.13;;;5.50;99.90;;;;;;6302133;22;20023;-77
2023/12/14 09:24:56;;;;;;;14.23;8.55;;;5.50;99.90;;;;;;6304049;22;20439;-77
2023/12/14 09:27:23;;;;;;;10.93;7.60;;;5.50;99.90;;;;;;6302872;22;20030;-77
2023/12/14 09:29:49;;;;;;;15.35;9.20;;;5.50;99.90;;;;;;6250621;22;20011;-77
2023/12/14 09:32:17;;;;;;;15.02;8.32;;;5.50;99.90;;;;;;6302062;22;20019;-78
2023/12/14 09:34:42;;;;;;;11.75;8.35;;;5.50;99.90;;;;;;6302134;22;20080;-77
2023/12/14 09:37:08;;;;;;;14.02;7.82;;;5.60;99.90;;;;;;6303477;22;20086;-77
2023/12/14 09:39:35;;;;;;;16.90;9.65;;;5.60;99.90;;;;;;6303828;22;20015;-77
2023/12/14 09:42:04;;;;;;;14.77;8.45;;;5.60;99.90;;;;;;6303649;22;20015;-77
2023/12/14 09:44:30;;;;;;;15.70;9.23;;;5.60;99.90;;;;;;6303756;22;20018;-78
2023/12/14 09:46:59;;;;;;;15.32;8.77;;;5.60;99.90;;;;;;6304182;22;20034;-77
2023/12/14 09:49:29;;;;;;;13.05;8.05;;;5.60;99.90;;;;;;6302025;22;20068;-78
2023/12/14 09:51:56;;;;;;;15.77;8.77;;;5.60;99.90;;;;;;6301542;22;20042;-77
2023/12/14 09:54:22;;;;;;;17.20;9.32;;;5.60;99.90;;;;;;6303802;22;20346;-77
2023/12/14 09:56:48;;;;;;;14.30;8.38;;;5.60;99.90;;;;;;6301880;22;20026;-77
2023/12/14 09:59:15;;;;;;;15.15;8.45;;;5.60;99.90;;;;;;6303814;22;20018;-77
2023/12/14 10:01:40;;;;;;;13.88;8.82;;;5.60;99.90;;;;;;6302162;22;20692;-78
2023/12/14 10:04:07;;;;;;;13.68;8.85;;;5.70;99.90;;;;;;6304081;22;20015;-78
2023/12/14 10:06:33;;;;;;;14.00;9.40;;;5.60;99.90;;;;;;6303855;22;20336;-77
2023/12/14 10:08:59;;;;;;;12.30;9.00;;;5.60;99.90;;;;;;6303689;22;20015;-77
2023/12/14 10:11:24;;;;;;;22.15;11.98;;;5.60;99.90;;;;;;6302364;22;20015;-78
2023/12/14 10:13:50;;;;;;;22.85;12.10;;;5.70;99.90;;;;;;6304445;22;20022;-77
2023/12/14 10:16:32;;;;;;;19.73;11.88;;;5.70;99.90;;;;;;6304009;22;20356;-78
2023/12/14 10:18:59;;;;;;;19.52;9.43;;;5.70;99.90;;;;;;6304318;22;20409;-77
2023/12/14 10:21:27;;;;;;;16.25;9.15;;;5.70;99.90;;;;;;6304195;22;20074;-78
2023/12/14 10:23:56;;;;;;;18.88;9.27;;;5.70;99.90;;;;;;6303853;22;20042;-77
2023/12/14 10:26:25;;;;;;;14.43;8.57;;;5.70;99.90;;;;;;6304259;22;20022;-76
2023/12/14 10:28:52;;;;;;;17.70;9.07;;;5.80;99.90;;;;;;6303887;22;20343;-85
2023/12/14 10:31:21;;;;;;;14.20;8.27;;;6.00;99.90;;;;;;6304201;22;20323;-77
2023/12/14 10:33:47;;;;;;;14.25;9.48;;;6.00;99.90;;;;;;6303511;22;20051;-84
2023/12/14 10:36:14;;;;;;;16.60;8.93;;;6.10;99.90;;;;;;6303595;22;20093;-79
2023/12/14 10:38:43;;;;;;;10.98;7.55;;;6.10;99.90;;;;;;6302353;22;20052;-78
2023/12/14 10:41:09;;;;;;;18.90;10.75;;;6.20;99.90;;;;;;6303543;22;20018;-78
2023/12/14 10:43:39;;;;;;;13.43;8.15;;;6.30;99.90;;;;;;6303518;22;20328;-78
2023/12/14 10:46:07;;;;;;;14.32;8.40;;;6.40;99.90;;;;;;6303237;22;20455;-78
2023/12/14 10:48:36;;;;;;;18.58;10.20;;;6.50;99.90;;;;;;6301221;22;20044;-78
2023/12/14 10:51:04;;;;;;;22.80;11.75;;;6.50;99.90;;;;;;6303481;22;20411;-78
2023/12/14 10:53:33;;;;;;;18.23;10.32;;;6.60;99.90;;;;;;6301421;22;20027;-78
2023/12/14 10:56:02;;;;;;;31.48;14.13;;;6.70;99.90;;;;;;6303508;22;20030;-78
2023/12/14 10:58:47;;;;;;;15.38;9.07;;;6.70;99.90;;;;;;6303117;22;20071;-78
2023/12/14 11:01:16;;;;;;;14.10;7.95;;;6.70;99.90;;;;;;6303574;22;20335;-80
2023/12/14 11:03:44;;;;;;;15.43;8.95;;;6.70;99.90;;;;;;6303222;22;20335;-79
2023/12/14 11:06:29;;;;;;;19.45;9.95;;;6.90;99.90;;;;;;6303129;22;20019;-78
2023/12/14 11:09:00;;;;;;;19.42;9.45;;;6.80;99.90;;;;;;6301365;22;20019;-77
2023/12/14 11:11:30;;;;;;;16.02;9.63;;;6.90;99.90;;;;;;6301735;22;20343;-86
2023/12/14 11:13:56;;;;;;;14.80;8.30;;;6.90;99.90;;;;;;6303105;22;20027;-86
2023/12/14 11:16:30;;;;;;;14.75;8.35;;;6.90;99.90;;;;;;6302973;22;20072;-85
2023/12/14 11:19:22;;;;;;;14.32;8.88;;;7.00;99.90;;;;;;6302472;22;20015;-85
2023/12/14 11:21:56;;;;;;;35.10;16.95;;;6.90;99.90;;;;;;6291037;22;20074;-87
2023/12/14 11:24:22;;;;;;;28.63;13.70;;;6.90;99.90;;;;;;6279403;22;20023;-85
2023/12/14 11:26:51;;;;;;;47.17;19.45;;;6.90;99.90;;;;;;6304756;22;20023;-80
2023/12/14 11:29:21;;;;;;;31.67;14.55;;;6.90;99.90;;;;;;6305516;22;20019;-81
2023/12/14 11:31:47;;;;;;;27.60;12.00;;;7.00;99.90;;;;;;6303537;22;20024;-91
2023/12/14 11:34:16;;;;;;;34.15;15.50;;;6.90;99.90;;;;;;6277646;22;20351;-79
2023/12/14 11:36:42;;;;;;;14.23;9.27;;;6.90;99.90;;;;;;6303178;22;20113;-79
2023/12/14 11:39:09;;;;;;;16.73;8.80;;;6.90;99.90;;;;;;6303301;22;20022;-80
2023/12/14 11:41:36;;;;;;;19.52;9.15;;;7.00;99.90;;;;;;6303435;22;20094;-81
2023/12/14 11:44:02;;;;;;;26.40;13.45;;;6.90;99.90;;;;;;6303337;22;20050;-80
2023/12/14 11:46:29;;;;;;;22.45;12.02;;;7.00;99.90;;;;;;6303332;22;20019;-80
2023/12/14 11:48:56;;;;;;;13.55;7.93;;;6.90;99.90;;;;;;6303405;22;20061;-81
2023/12/14 11:51:23;;;;;;;14.70;8.38;;;6.70;99.90;;;;;;6303533;22;20019;-81
2023/12/14 11:53:49;;;;;;;13.93;8.77;;;6.70;99.90;;;;;;6303477;22;20023;-81
2023/12/14 11:56:18;;;;;;;15.15;8.98;;;6.70;99.90;;;;;;6303423;22;20086;-80
2023/12/14 11:58:45;;;;;;;15.70;9.20;;;6.70;99.90;;;;;;6303156;22;20429;-80
2023/12/14 12:01:12;;;;;;;21.10;11.80;;;6.80;99.90;;;;;;6304711;22;20019;-80
2023/12/14 12:03:38;;;;;;;24.17;10.73;;;6.80;99.90;;;;;;6303596;22;20014;-82
2023/12/14 12:06:04;;;;;;;15.15;9.80;;;6.80;99.90;;;;;;6303707;22;20065;-82
2023/12/14 12:08:30;;;;;;;16.05;10.25;;;6.90;99.90;;;;;;6303754;22;20086;-83
2023/12/14 12:10:57;;;;;;;14.52;9.48;;;6.90;99.90;;;;;;6305054;22;20055;-82
2023/12/14 12:13:22;;;;;;;14.20;8.40;;;6.90;99.90;;;;;;6303762;22;20022;-82
2023/12/14 12:15:49;;;;;;;15.70;8.70;;;6.90;99.90;;;;;;6303354;22;20697;-82
2023/12/14 12:18:16;;;;;;;15.52;8.90;;;6.90;99.90;;;;;;6303633;22;20015;-81
2023/12/14 12:20:42;;;;;;;12.00;8.27;;;6.80;99.90;;;;;;6303387;22;20022;-81
2023/12/14 12:23:08;;;;;;;13.88;8.55;;;6.80;99.90;;;;;;6305038;22;20357;-81
2023/12/14 12:25:34;;;;;;;14.40;9.10;;;6.80;99.90;;;;;;6305963;22;20019;-84
2023/12/14 12:28:03;;;;;;;15.90;8.63;;;6.90;99.90;;;;;;6303565;22;20022;-86
2023/12/14 12:30:29;;;;;;;19.15;10.38;;;6.90;99.90;;;;;;6304986;22;20019;-83
2023/12/14 12:32:55;;;;;;;16.35;9.48;;;7.00;99.90;;;;;;6303459;22;20011;-83
2023/12/14 12:35:22;;;;;;;16.38;10.00;;;6.90;99.90;;;;;;6305293;22;20015;-83
2023/12/14 12:37:53;;;;;;;14.45;9.52;;;7.00;99.90;;;;;;6303678;22;20016;-82
2023/12/14 12:40:22;;;;;;;15.80;9.15;;;7.00;99.90;;;;;;6303384;22;20171;-82
2023/12/14 12:42:49;;;;;;;14.35;8.88;;;6.90;99.90;;;;;;6305900;22;20011;-80
2023/12/14 12:45:21;;;;;;;14.27;9.60;;;7.00;99.90;;;;;;6302820;22;20018;-82